createdAt,value
2022-12-18T00:01:32.293Z,88.40
2022-12-18T00:03:59.362Z,86.50
2022-12-18T00:06:28.963Z,80.60
2022-12-18T00:08:58.213Z,99.50
2022-12-18T00:11:28.341Z,89.07
2022-12-18T00:13:57.239Z,81.80
2022-12-18T00:16:26.325Z,80.13
2022-12-18T00:18:56.163Z,93.90
2022-12-18T00:21:23.238Z,96.87
2022-12-18T00:23:51.365Z,90.00
2022-12-18T00:26:25.778Z,79.27
2022-12-18T00:28:53.088Z,85.33
2022-12-18T00:31:23.731Z,81.73
2022-12-18T00:33:54.625Z,87.43
2022-12-18T00:36:25.653Z,78.70
2022-12-18T00:38:54.412Z,87.53
2022-12-18T00:41:40.118Z,86.40
2022-12-18T00:44:10.791Z,91.73
2022-12-18T00:46:37.578Z,88.30
2022-12-18T00:49:04.721Z,83.47
2022-12-18T00:51:31.793Z,84.03
2022-12-18T00:53:58.625Z,91.50
2022-12-18T00:56:25.990Z,88.27
2022-12-18T00:58:53.044Z,86.43
2022-12-18T01:01:21.159Z,89.63
2022-12-18T01:03:48.301Z,80.87
2022-12-18T01:06:16.913Z,85.90
2022-12-18T01:08:44.325Z,92.37
2022-12-18T01:11:16.633Z,86.63
2022-12-18T01:13:44.062Z,93.00
2022-12-18T01:16:14.937Z,83.43
2022-12-18T01:18:41.991Z,87.33
2022-12-18T01:21:16.181Z,90.80
2022-12-18T01:23:43.240Z,89.07
2022-12-18T01:26:16.499Z,73.20
2022-12-18T01:28:44.958Z,77.43
2022-12-18T01:31:33.588Z,75.27
2022-12-18T01:34:05.479Z,78.07
2022-12-18T01:36:36.421Z,86.00
2022-12-18T01:39:07.306Z,79.67
2022-12-18T01:41:53.889Z,75.27
2022-12-18T01:44:57.551Z,78.23
2022-12-18T01:47:40.635Z,77.80
2022-12-18T01:50:17.989Z,83.47
2022-12-18T01:52:49.817Z,80.57
2022-12-18T01:55:19.877Z,71.73
2022-12-18T01:57:47.302Z,69.93
2022-12-18T02:00:25.253Z,78.77
2022-12-18T02:02:52.195Z,76.63
2022-12-18T02:05:30.671Z,77.57
2022-12-18T02:08:39.461Z,67.80
2022-12-18T02:11:19.892Z,67.17
2022-12-18T02:14:05.856Z,69.90
2022-12-18T02:16:51.337Z,64.37
2022-12-18T02:19:56.009Z,65.17
2022-12-18T02:22:42.913Z,76.73
2022-12-18T02:26:06.092Z,72.27
2022-12-18T02:28:42.550Z,66.67
2022-12-18T02:31:16.336Z,74.67
2022-12-18T02:33:46.633Z,81.20
2022-12-18T02:36:15.779Z,69.10
2022-12-18T02:38:44.307Z,70.00
2022-12-18T02:41:12.894Z,72.37
2022-12-18T02:43:40.332Z,76.43
2022-12-18T02:46:34.653Z,74.17
2022-12-18T02:49:28.450Z,75.40
2022-12-18T02:52:08.740Z,70.57
2022-12-18T02:55:28.525Z,71.53
2022-12-18T02:57:59.322Z,66.77
2022-12-18T03:00:40.702Z,64.93
2022-12-18T03:03:31.099Z,70.60
2022-12-18T03:06:11.471Z,72.17
2022-12-18T03:08:43.893Z,68.03
2022-12-18T03:11:13.486Z,61.80
2022-12-18T03:13:49.406Z,61.87
2022-12-18T03:16:29.639Z,67.40
2022-12-18T03:19:02.692Z,61.70
2022-12-18T03:21:36.455Z,59.57
2022-12-18T03:24:07.468Z,68.83
2022-12-18T03:26:37.905Z,73.70
2022-12-18T03:29:11.270Z,65.77
2022-12-18T03:31:41.664Z,66.70
2022-12-18T03:34:24.005Z,71.03
2022-12-18T03:36:50.894Z,72.13
2022-12-18T03:39:17.774Z,70.80
2022-12-18T03:42:09.611Z,67.20
2022-12-18T03:45:09.126Z,66.63
2022-12-18T03:48:01.529Z,64.70
2022-12-18T03:50:58.548Z,55.63
2022-12-18T03:53:52.616Z,52.77
2022-12-18T03:56:22.082Z,57.87
2022-12-18T03:58:49.945Z,55.40
2022-12-18T04:01:18.761Z,53.03
2022-12-18T04:03:50.169Z,53.83
2022-12-18T04:06:18.524Z,51.77
2022-12-18T04:08:46.300Z,54.10
2022-12-18T04:11:13.138Z,46.40
2022-12-18T04:13:40.632Z,49.13
2022-12-18T04:16:08.125Z,54.70
2022-12-18T04:18:35.403Z,48.43
2022-12-18T04:21:03.197Z,52.83
2022-12-18T04:23:30.103Z,48.17
2022-12-18T04:25:56.899Z,49.17
2022-12-18T04:28:23.746Z,49.07
2022-12-18T04:30:50.881Z,48.43
2022-12-18T04:33:17.871Z,45.63
2022-12-18T04:35:45.869Z,48.67
2022-12-18T04:38:12.764Z,41.80
2022-12-18T04:40:39.676Z,45.63
2022-12-18T04:43:08.164Z,45.60
2022-12-18T04:45:35.107Z,49.03
2022-12-18T04:48:03.190Z,46.00
2022-12-18T04:50:30.797Z,45.53
2022-12-18T04:52:58.084Z,47.07
2022-12-18T04:55:25.890Z,49.77
2022-12-18T04:57:52.802Z,44.30
2022-12-18T05:00:19.906Z,53.27
2022-12-18T05:02:46.927Z,44.57
2022-12-18T05:05:14.254Z,49.27
2022-12-18T05:07:41.062Z,53.90
2022-12-18T05:10:08.959Z,52.77
2022-12-18T05:12:57.070Z,51.70
2022-12-18T05:15:23.860Z,51.73
2022-12-18T05:17:50.654Z,51.17
2022-12-18T05:20:19.065Z,51.27
2022-12-18T05:22:45.934Z,47.03
2022-12-18T05:25:12.718Z,46.77
2022-12-18T05:27:39.510Z,48.37
2022-12-18T05:30:07.135Z,46.60
2022-12-18T05:32:33.990Z,44.80
2022-12-18T05:35:00.803Z,47.63
2022-12-18T05:37:27.614Z,48.37
2022-12-18T05:39:54.372Z,50.63
2022-12-18T05:42:21.209Z,46.80
2022-12-18T05:44:48.337Z,47.53
2022-12-18T05:47:15.230Z,46.57
2022-12-18T05:49:42.037Z,47.73
2022-12-18T05:52:08.786Z,47.53
2022-12-18T05:54:35.760Z,52.93
2022-12-18T05:57:02.518Z,48.10
2022-12-18T05:59:29.266Z,47.83
2022-12-18T06:01:56.178Z,50.17
2022-12-18T06:04:22.977Z,39.50
2022-12-18T06:06:49.773Z,41.53
2022-12-18T06:09:16.609Z,44.37
2022-12-18T06:11:43.414Z,52.03
2022-12-18T06:14:11.096Z,49.10
2022-12-18T06:16:38.023Z,47.70
2022-12-18T06:19:06.676Z,47.33
2022-12-18T06:21:33.824Z,52.63
2022-12-18T06:24:01.537Z,52.23
2022-12-18T06:26:28.891Z,48.87
2022-12-18T06:28:56.276Z,51.20
2022-12-18T06:31:23.351Z,46.87
2022-12-18T06:33:50.220Z,46.93
2022-12-18T06:36:17.544Z,48.67
2022-12-18T06:38:45.150Z,48.83
2022-12-18T06:41:18.641Z,51.50
2022-12-18T06:43:45.723Z,47.37
2022-12-18T06:46:13.540Z,46.37
2022-12-18T06:48:41.138Z,43.77
2022-12-18T06:51:08.053Z,40.60
2022-12-18T06:53:35.101Z,46.30
2022-12-18T06:56:10.253Z,47.63
2022-12-18T06:58:39.062Z,46.87
2022-12-18T07:01:09.695Z,46.90
2022-12-18T07:03:38.081Z,46.23
2022-12-18T07:06:05.352Z,49.90
2022-12-18T07:08:33.022Z,46.20
2022-12-18T07:10:59.857Z,47.73
2022-12-18T07:13:27.656Z,46.80
2022-12-18T07:15:54.484Z,47.03
2022-12-18T07:18:21.295Z,45.40
2022-12-18T07:20:48.096Z,42.30
2022-12-18T07:23:15.792Z,47.70
2022-12-18T07:25:42.608Z,47.67
2022-12-18T07:28:12.899Z,41.90
2022-12-18T07:30:43.960Z,44.93
2022-12-18T07:33:10.766Z,44.43
2022-12-18T07:35:37.509Z,54.07
2022-12-18T07:38:04.268Z,47.33
2022-12-18T07:40:31.049Z,39.83
2022-12-18T07:42:57.918Z,45.47
2022-12-18T07:45:24.673Z,46.10
2022-12-18T07:47:51.432Z,50.47
2022-12-18T07:50:18.329Z,45.93
2022-12-18T07:52:45.159Z,76.00
2022-12-18T07:55:12.018Z,57.57
2022-12-18T07:57:50.193Z,50.17
2022-12-18T08:00:18.164Z,46.77
2022-12-18T08:02:45.028Z,45.63
2022-12-18T08:05:11.910Z,43.10
2022-12-18T08:07:38.792Z,43.23
2022-12-18T08:10:06.609Z,47.37
2022-12-18T08:12:33.457Z,42.90
2022-12-18T08:15:00.271Z,41.87
2022-12-18T08:17:27.093Z,44.67
2022-12-18T08:19:53.880Z,47.77
2022-12-18T08:22:20.670Z,42.90
2022-12-18T08:24:47.721Z,40.10
2022-12-18T08:27:29.014Z,43.63
2022-12-18T08:29:57.168Z,39.30
2022-12-18T08:32:25.375Z,45.40
2022-12-18T08:34:52.288Z,43.73
2022-12-18T08:37:19.279Z,39.70
2022-12-18T08:39:46.347Z,48.53
2022-12-18T08:42:31.894Z,50.30
2022-12-18T08:44:58.680Z,44.77
2022-12-18T08:47:26.844Z,49.60
2022-12-18T08:49:53.760Z,49.73
2022-12-18T08:52:20.501Z,48.37
2022-12-18T08:54:47.267Z,47.40
2022-12-18T08:57:14.058Z,46.60
2022-12-18T08:59:40.856Z,43.03
2022-12-18T09:02:10.439Z,40.87
2022-12-18T09:04:37.400Z,39.50
2022-12-18T09:07:04.213Z,36.00
2022-12-18T09:09:31.002Z,44.50
2022-12-18T09:11:57.795Z,40.50
2022-12-18T09:14:24.532Z,39.10
2022-12-18T09:16:51.326Z,38.87
2022-12-18T09:19:18.159Z,36.20
2022-12-18T09:21:48.215Z,39.73
2022-12-18T09:24:16.493Z,39.53
2022-12-18T09:26:45.002Z,37.20
2022-12-18T09:29:15.441Z,96.73
2022-12-18T09:31:43.003Z,39.83
2022-12-18T09:34:09.761Z,87.87
2022-12-18T09:36:36.529Z,39.73
2022-12-18T09:39:08.130Z,47.40
2022-12-18T09:41:58.614Z,56.13
2022-12-18T09:44:43.164Z,34.63
2022-12-18T09:47:24.537Z,39.13
2022-12-18T09:49:59.501Z,38.83
2022-12-18T09:52:27.651Z,45.33
2022-12-18T09:55:12.699Z,47.77
2022-12-18T09:57:49.363Z,49.80
2022-12-18T10:00:23.121Z,32.53
2022-12-18T10:02:53.212Z,47.77
2022-12-18T10:05:49.360Z,39.37
2022-12-18T10:08:50.478Z,36.40
2022-12-18T10:11:27.593Z,35.83
2022-12-18T10:14:15.313Z,36.97
2022-12-18T10:17:28.487Z,38.20
2022-12-18T10:20:14.498Z,33.73
2022-12-18T10:23:04.318Z,36.53
2022-12-18T10:26:02.513Z,40.10
2022-12-18T10:28:32.922Z,40.03
2022-12-18T10:31:00.274Z,36.77
2022-12-18T10:33:32.709Z,40.63
2022-12-18T10:36:01.042Z,38.23
2022-12-18T10:38:31.037Z,33.03
2022-12-18T10:41:12.337Z,39.50
2022-12-18T10:43:41.699Z,45.40
2022-12-18T10:46:08.392Z,39.70
2022-12-18T10:48:48.202Z,33.27
2022-12-18T10:51:41.321Z,36.47
2022-12-18T10:54:18.888Z,36.27
2022-12-18T10:56:46.376Z,38.93
2022-12-18T10:59:17.783Z,38.00
2022-12-18T11:01:59.182Z,35.03
2022-12-18T11:04:30.468Z,38.43
2022-12-18T11:07:07.016Z,35.17
2022-12-18T11:09:41.261Z,38.20
2022-12-18T11:12:20.141Z,37.37
2022-12-18T11:15:01.014Z,36.73
2022-12-18T11:17:36.432Z,36.60
2022-12-18T11:20:07.978Z,39.33
2022-12-18T11:22:37.473Z,32.33
2022-12-18T11:28:02.877Z,34.77
2022-12-18T11:30:37.806Z,28.93
2022-12-18T11:33:14.522Z,31.73
2022-12-18T11:35:50.168Z,29.33
2022-12-18T11:38:34.841Z,33.00
2022-12-18T11:41:15.606Z,33.17
2022-12-18T11:43:52.646Z,33.77
2022-12-18T11:46:29.063Z,33.43
2022-12-18T11:49:04.858Z,32.27
2022-12-18T11:51:44.166Z,33.07
2022-12-18T11:54:16.702Z,34.07
2022-12-18T11:56:57.278Z,37.13
2022-12-18T11:59:57.076Z,41.57
2022-12-18T12:02:48.014Z,32.20
2022-12-18T12:06:02.113Z,30.57
2022-12-18T12:09:08.746Z,34.43
2022-12-18T12:11:49.291Z,29.87
2022-12-18T12:15:12.516Z,35.80
2022-12-18T12:17:53.745Z,32.97
2022-12-18T12:20:54.633Z,35.30
2022-12-18T12:23:33.205Z,32.13
2022-12-18T12:26:13.092Z,31.33
2022-12-18T12:28:54.396Z,29.27
2022-12-18T12:31:39.691Z,32.33
2022-12-18T12:34:22.005Z,34.00
2022-12-18T12:37:52.512Z,35.63
2022-12-18T12:40:50.178Z,32.37
2022-12-18T12:46:33.884Z,33.80
2022-12-18T12:49:07.272Z,33.60
2022-12-18T12:51:39.431Z,33.00
2022-12-18T12:54:18.330Z,33.60
2022-12-18T12:57:09.798Z,34.23
2022-12-18T12:59:46.538Z,31.87
2022-12-18T13:02:24.483Z,31.53
2022-12-18T13:05:26.932Z,29.23
2022-12-18T13:08:13.955Z,34.47
2022-12-18T13:10:43.209Z,29.43
2022-12-18T13:13:17.900Z,35.07
2022-12-18T13:16:08.402Z,33.77
2022-12-18T13:18:36.153Z,35.60
2022-12-18T13:21:24.878Z,30.13
2022-12-18T13:23:51.918Z,31.33
2022-12-18T13:26:21.919Z,31.10
2022-12-18T13:28:55.289Z,29.33
2022-12-18T13:31:30.986Z,34.87
2022-12-18T13:34:30.600Z,36.20
2022-12-18T13:37:33.145Z,34.13
2022-12-18T13:39:59.974Z,30.50
2022-12-18T13:42:58.206Z,30.80
2022-12-18T13:46:05.865Z,33.00
2022-12-18T13:48:37.570Z,35.93
2022-12-18T13:51:09.042Z,36.40
2022-12-18T13:53:54.698Z,32.37
2022-12-18T13:56:34.230Z,37.57
2022-12-18T13:59:19.010Z,35.57
2022-12-18T14:01:53.190Z,34.30
2022-12-18T14:04:23.758Z,34.67
2022-12-18T14:06:54.445Z,35.93
2022-12-18T14:09:31.770Z,38.80
2022-12-18T14:12:19.405Z,38.03
2022-12-18T14:14:52.534Z,34.50
2022-12-18T14:17:21.992Z,38.17
2022-12-18T14:19:51.838Z,37.03
2022-12-18T14:22:30.955Z,31.83
2022-12-18T14:25:23.106Z,37.53
2022-12-18T14:28:07.623Z,32.93
2022-12-18T14:30:46.441Z,33.80
2022-12-18T14:33:25.569Z,34.77
2022-12-18T14:36:05.814Z,31.57
2022-12-18T14:38:39.289Z,37.43
2022-12-18T14:41:12.303Z,34.67
2022-12-18T14:43:43.103Z,32.07
2022-12-18T14:46:45.518Z,36.13
2022-12-18T14:49:33.461Z,39.07
2022-12-18T14:52:04.434Z,38.83
2022-12-18T14:54:32.908Z,42.23
2022-12-18T14:57:45.438Z,33.60
2022-12-18T15:00:22.243Z,37.87
2022-12-18T15:02:59.266Z,35.63
2022-12-18T15:05:31.060Z,40.37
2022-12-18T15:08:00.645Z,42.23
2022-12-18T15:10:33.115Z,41.97
2022-12-18T15:13:01.390Z,39.73
2022-12-18T15:15:34.220Z,38.67
2022-12-18T15:18:02.953Z,41.80
2022-12-18T15:20:34.478Z,38.87
2022-12-18T15:23:01.282Z,36.57
2022-12-18T15:25:37.811Z,44.30
2022-12-18T15:28:18.995Z,40.83
2022-12-18T15:31:05.513Z,39.33
2022-12-18T15:33:37.189Z,37.53
2022-12-18T15:36:10.266Z,44.30
2022-12-18T15:38:37.222Z,44.77
2022-12-18T15:41:05.574Z,39.60
2022-12-18T15:43:39.010Z,42.87
2022-12-18T15:46:25.974Z,43.70
2022-12-18T15:49:01.815Z,43.47
2022-12-18T15:51:35.345Z,41.60
2022-12-18T15:54:12.790Z,42.47
2022-12-18T15:56:57.947Z,43.73
2022-12-18T15:59:25.460Z,43.57
2022-12-18T16:01:56.092Z,39.70
2022-12-18T16:04:24.500Z,40.00
2022-12-18T16:07:14.682Z,37.80
2022-12-18T16:09:39.617Z,34.77
2022-12-18T16:12:09.865Z,38.90
2022-12-18T16:14:36.620Z,38.17
2022-12-18T16:17:10.797Z,39.63
2022-12-18T16:19:37.611Z,36.63
2022-12-18T16:22:04.422Z,40.33
2022-12-18T16:24:35.017Z,40.90
2022-12-18T16:27:01.814Z,42.17
2022-12-18T16:29:29.681Z,40.07
2022-12-18T16:31:58.735Z,39.97
2022-12-18T16:34:29.590Z,40.90
2022-12-18T16:37:05.852Z,39.87
2022-12-18T16:39:35.281Z,40.23
2022-12-18T16:42:17.078Z,39.13
2022-12-18T16:44:44.366Z,36.73
2022-12-18T16:47:11.797Z,40.27
2022-12-18T16:49:42.486Z,38.27
2022-12-18T16:52:09.508Z,39.13
2022-12-18T16:54:36.679Z,40.93
2022-12-18T16:57:05.314Z,39.03
2022-12-18T16:59:35.276Z,40.70
2022-12-18T17:02:07.198Z,41.73
2022-12-18T17:04:34.158Z,36.50
2022-12-18T17:07:00.974Z,50.90
2022-12-18T17:09:28.261Z,45.93
2022-12-18T17:11:55.521Z,44.50
2022-12-18T17:14:25.353Z,45.47
2022-12-18T17:17:19.812Z,39.57
2022-12-18T17:19:43.709Z,45.40
2022-12-18T17:22:10.504Z,36.30
2022-12-18T17:24:37.420Z,41.27
2022-12-18T17:27:04.618Z,37.30
2022-12-18T17:29:31.510Z,42.67
2022-12-18T17:31:59.706Z,44.67
2022-12-18T17:34:27.870Z,40.30
2022-12-18T17:36:55.106Z,42.27
2022-12-18T17:39:22.258Z,45.73
2022-12-18T17:41:50.031Z,43.33
2022-12-18T17:44:18.212Z,45.97
2022-12-18T17:46:46.053Z,42.60
2022-12-18T17:49:13.990Z,45.67
2022-12-18T17:51:42.752Z,36.70
2022-12-18T17:54:10.412Z,42.70
2022-12-18T17:56:38.354Z,39.80
2022-12-18T17:59:05.245Z,44.50
2022-12-18T18:01:32.228Z,44.03
2022-12-18T18:04:00.304Z,43.27
2022-12-18T18:06:27.758Z,44.97
2022-12-18T18:08:54.994Z,45.13
2022-12-18T18:11:42.597Z,44.07
2022-12-18T18:14:17.065Z,43.90
2022-12-18T18:16:47.998Z,44.97
2022-12-18T18:19:19.084Z,40.60
2022-12-18T18:21:48.390Z,45.97
2022-12-18T18:24:19.200Z,47.40
2022-12-18T18:26:46.976Z,45.20
2022-12-18T18:29:19.032Z,50.87
2022-12-18T18:31:46.131Z,50.87
2022-12-18T18:34:19.091Z,49.20
2022-12-18T18:36:46.231Z,44.97
2022-12-18T18:39:14.216Z,46.40
2022-12-18T18:41:41.197Z,48.20
2022-12-18T18:44:12.297Z,48.07
2022-12-18T18:46:39.178Z,50.30
2022-12-18T18:49:06.807Z,55.93
2022-12-18T18:51:35.284Z,50.40
2022-12-18T18:54:02.661Z,57.23
2022-12-18T18:59:18.588Z,57.70
2022-12-18T19:01:45.776Z,55.80
2022-12-18T19:04:12.827Z,52.90
2022-12-18T19:06:39.690Z,54.43
2022-12-18T19:09:07.517Z,49.63
2022-12-18T19:11:53.277Z,51.00
2022-12-18T19:14:23.787Z,48.07
2022-12-18T19:16:51.140Z,51.93
2022-12-18T19:19:21.016Z,47.90
2022-12-18T19:21:48.421Z,52.73
2022-12-18T19:24:15.480Z,53.47
2022-12-18T19:26:42.684Z,57.00
2022-12-18T19:29:11.548Z,52.97
2022-12-18T19:31:38.720Z,58.20
2022-12-18T19:34:07.085Z,64.83
2022-12-18T19:36:39.749Z,53.17
2022-12-18T19:39:19.313Z,53.77
2022-12-18T19:41:46.825Z,59.33
2022-12-18T19:44:17.371Z,56.97
2022-12-18T19:46:46.104Z,56.70
2022-12-18T19:49:17.380Z,60.13
2022-12-18T19:51:45.502Z,65.13
2022-12-18T19:54:17.138Z,58.47
2022-12-18T19:56:45.647Z,53.80
2022-12-18T19:59:12.886Z,58.73
2022-12-18T20:01:40.054Z,62.43
2022-12-18T20:04:07.138Z,57.93
2022-12-18T20:06:46.260Z,63.27
2022-12-18T20:09:13.475Z,67.97
2022-12-18T20:11:42.037Z,57.33
2022-12-18T20:14:14.396Z,56.50
2022-12-18T20:16:43.715Z,58.83
2022-12-18T20:19:13.257Z,57.47
2022-12-18T20:21:41.396Z,52.90
2022-12-18T20:24:11.141Z,51.47
2022-12-18T20:26:38.452Z,49.03
2022-12-18T20:29:05.410Z,47.90
2022-12-18T20:31:32.353Z,52.13
2022-12-18T20:34:01.571Z,56.57
2022-12-18T20:36:30.750Z,55.53
2022-12-18T20:39:01.690Z,53.30
2022-12-18T20:41:37.540Z,52.83
2022-12-18T20:44:21.870Z,53.73
2022-12-18T20:46:56.787Z,52.57
2022-12-18T20:49:25.811Z,55.47
2022-12-18T20:51:56.167Z,50.90
2022-12-18T20:54:25.388Z,54.90
2022-12-18T20:56:52.386Z,48.20
2022-12-18T20:59:19.743Z,54.13
2022-12-18T21:01:48.333Z,55.30
2022-12-18T21:04:18.849Z,55.87
2022-12-18T21:06:52.932Z,48.77
2022-12-18T21:09:23.652Z,50.77
2022-12-18T21:12:10.331Z,55.27
2022-12-18T21:14:40.835Z,52.57
2022-12-18T21:17:07.637Z,52.07
2022-12-18T21:19:34.792Z,50.70
2022-12-18T21:22:02.376Z,55.83
2022-12-18T21:24:30.586Z,56.77
2022-12-18T21:27:01.771Z,51.50
2022-12-18T21:29:28.779Z,50.97
2022-12-18T21:31:55.765Z,49.63
2022-12-18T21:34:28.825Z,53.23
2022-12-18T21:36:58.261Z,58.27
2022-12-18T21:39:27.189Z,49.20
2022-12-18T21:42:13.704Z,46.23
2022-12-18T21:44:42.044Z,40.87
2022-12-18T21:47:17.596Z,40.80
2022-12-18T21:49:53.189Z,44.20
2022-12-18T21:52:31.369Z,43.57
2022-12-18T21:55:09.108Z,42.17
2022-12-18T21:57:38.799Z,43.57
2022-12-18T22:00:09.870Z,45.33
2022-12-18T22:02:38.222Z,40.10
2022-12-18T22:05:05.701Z,42.13
2022-12-18T22:07:32.883Z,44.73
2022-12-18T22:09:59.734Z,44.60
2022-12-18T22:12:44.029Z,43.20
2022-12-18T22:15:21.428Z,47.07
2022-12-18T22:17:56.942Z,41.63
2022-12-18T22:20:27.154Z,46.23
2022-12-18T22:22:53.921Z,49.97
2022-12-18T22:25:20.798Z,41.37
2022-12-18T22:28:07.567Z,54.63
2022-12-18T22:30:35.128Z,49.33
2022-12-18T22:33:03.458Z,47.53
2022-12-18T22:35:30.272Z,45.83
2022-12-18T22:37:59.793Z,46.03
2022-12-18T22:40:27.317Z,44.80
2022-12-18T22:42:55.909Z,45.43
2022-12-18T22:45:23.061Z,50.33
2022-12-18T22:47:50.283Z,48.87
2022-12-18T22:50:17.113Z,48.03
2022-12-18T22:52:43.897Z,43.70
2022-12-18T22:55:10.677Z,47.27
2022-12-18T22:57:37.511Z,52.77
2022-12-18T23:00:07.240Z,44.77
2022-12-18T23:02:34.206Z,48.13
2022-12-18T23:05:01.075Z,48.20
2022-12-18T23:07:27.832Z,49.73
2022-12-18T23:09:59.552Z,45.23
2022-12-18T23:12:28.039Z,49.77
2022-12-18T23:14:54.883Z,48.73
2022-12-18T23:17:21.742Z,50.27
2022-12-18T23:19:49.336Z,47.73
2022-12-18T23:22:17.344Z,52.30
2022-12-18T23:24:44.164Z,48.13
2022-12-18T23:27:11.988Z,47.00
2022-12-18T23:29:40.227Z,51.87
2022-12-18T23:32:07.690Z,52.20
2022-12-18T23:34:34.544Z,47.00
2022-12-18T23:37:03.456Z,57.77
2022-12-18T23:39:30.505Z,51.67
2022-12-18T23:41:58.679Z,48.27
2022-12-18T23:44:25.969Z,49.80
2022-12-18T23:46:52.986Z,48.10
2022-12-18T23:49:19.986Z,47.03
2022-12-18T23:51:46.764Z,48.93
2022-12-18T23:54:13.611Z,54.53
2022-12-18T23:56:40.416Z,50.27
2022-12-18T23:59:07.409Z,51.63
